createdAt,value
2018-03-31T00:00:13.132Z,99.99
2018-03-31T00:01:13.097Z,99.99
2018-03-31T00:02:13.084Z,99.99
2018-03-31T00:03:13.049Z,99.99
2018-03-31T00:04:13.022Z,99.99
2018-03-31T00:05:13.018Z,99.99
2018-03-31T00:06:12.971Z,99.99
2018-03-31T00:07:12.946Z,99.99
2018-03-31T00:08:12.917Z,99.99
2018-03-31T00:09:12.891Z,99.99
2018-03-31T00:10:12.877Z,99.99
2018-03-31T00:11:12.853Z,99.99
2018-03-31T00:12:12.855Z,99.99
2018-03-31T00:13:12.801Z,99.99
2018-03-31T00:14:12.772Z,99.99
2018-03-31T00:15:12.775Z,99.99
2018-03-31T00:16:12.714Z,99.99
2018-03-31T00:17:12.676Z,99.99
2018-03-31T00:18:12.690Z,99.99
2018-03-31T00:19:12.631Z,99.99
2018-03-31T00:20:12.616Z,99.99
2018-03-31T00:21:12.583Z,99.99
2018-03-31T00:22:12.557Z,99.99
2018-03-31T00:23:12.560Z,99.99
2018-03-31T00:24:12.531Z,99.99
2018-03-31T00:25:12.470Z,99.99
2018-03-31T00:26:12.455Z,99.99
2018-03-31T00:27:12.451Z,99.99
2018-03-31T00:28:12.389Z,99.99
2018-03-31T00:29:12.400Z,99.99
2018-03-31T00:30:12.373Z,99.99
2018-03-31T00:31:12.310Z,99.99
2018-03-31T00:32:12.310Z,99.99
2018-03-31T00:33:12.288Z,99.99
2018-03-31T00:34:12.231Z,99.99
2018-03-31T00:35:12.232Z,99.99
2018-03-31T00:36:12.186Z,99.99
2018-03-31T00:37:12.208Z,99.99
2018-03-31T00:38:12.149Z,99.99
2018-03-31T00:39:12.126Z,99.99
2018-03-31T00:40:12.135Z,99.99
2018-03-31T00:41:12.065Z,99.99
2018-03-31T00:42:12.045Z,99.99
2018-03-31T00:43:12.046Z,99.99
2018-03-31T00:44:11.988Z,99.99
2018-03-31T00:45:11.999Z,99.99
2018-03-31T00:46:11.968Z,99.99
2018-03-31T00:47:11.907Z,99.99
2018-03-31T00:48:11.882Z,99.99
2018-03-31T00:49:11.857Z,99.99
2018-03-31T00:50:11.822Z,99.99
2018-03-31T00:51:11.800Z,99.99
2018-03-31T00:52:11.820Z,99.99
2018-03-31T00:53:11.741Z,99.99
2018-03-31T00:54:11.721Z,99.99
2018-03-31T00:55:11.708Z,99.99
2018-03-31T00:56:11.662Z,99.99
2018-03-31T00:57:11.664Z,99.99
2018-03-31T00:58:11.605Z,99.99
2018-03-31T00:59:11.576Z,99.99
2018-03-31T01:00:11.579Z,99.99
2018-03-31T01:01:11.528Z,99.99
2018-03-31T01:02:11.492Z,99.99
2018-03-31T01:03:11.477Z,99.99
2018-03-31T01:04:11.479Z,99.99
2018-03-31T01:05:11.423Z,99.99
2018-03-31T01:06:11.406Z,99.99
2018-03-31T01:07:11.400Z,99.99
2018-03-31T01:08:11.336Z,99.99
2018-03-31T01:09:11.336Z,99.99
2018-03-31T01:10:11.313Z,99.99
2018-03-31T01:11:11.261Z,99.99
2018-03-31T01:12:11.252Z,99.99
2018-03-31T01:13:11.240Z,99.99
2018-03-31T01:14:11.228Z,99.99
2018-03-31T01:15:11.173Z,99.99
2018-03-31T01:16:11.145Z,99.99
2018-03-31T01:17:11.132Z,99.99
2018-03-31T01:18:11.099Z,99.99
2018-03-31T01:19:11.063Z,99.99
2018-03-31T01:20:11.097Z,99.99
2018-03-31T01:21:11.010Z,99.99
2018-03-31T01:22:10.984Z,99.99
2018-03-31T01:23:10.985Z,99.99
2018-03-31T01:24:10.927Z,99.99
2018-03-31T01:25:10.904Z,99.99
2018-03-31T01:26:10.918Z,99.99
2018-03-31T01:27:10.843Z,99.99
2018-03-31T01:28:10.803Z,99.99
2018-03-31T01:29:10.828Z,99.99
2018-03-31T01:30:10.763Z,99.99
2018-03-31T01:31:10.737Z,99.99
2018-03-31T01:32:10.737Z,99.99
2018-03-31T01:33:10.682Z,99.99
2018-03-31T01:34:10.696Z,99.99
2018-03-31T01:35:10.656Z,99.99
2018-03-31T01:36:18.584Z,99.99
2018-03-31T01:38:03.548Z,99.99
2018-03-31T01:39:03.453Z,99.99
2018-03-31T01:40:03.464Z,99.99
2018-03-31T01:41:03.427Z,99.99
2018-03-31T01:42:03.374Z,99.99
2018-03-31T01:43:03.377Z,99.99
2018-03-31T01:44:03.347Z,99.99
2018-03-31T01:45:03.310Z,99.99
2018-03-31T01:46:03.293Z,99.99
2018-03-31T01:47:03.267Z,99.99
2018-03-31T01:48:03.220Z,99.99
2018-03-31T01:49:03.193Z,99.99
2018-03-31T01:50:03.207Z,99.99
2018-03-31T01:51:03.139Z,99.99
2018-03-31T01:52:03.109Z,99.99
2018-03-31T01:53:03.080Z,99.99
2018-03-31T01:54:03.061Z,99.99
2018-03-31T01:55:03.049Z,99.99
2018-03-31T01:56:03.021Z,99.99
2018-03-31T01:57:05.498Z,99.99
2018-03-31T01:58:02.965Z,99.99
2018-03-31T01:59:02.945Z,99.99
2018-03-31T02:00:02.922Z,99.99
2018-03-31T02:01:02.883Z,99.99
2018-03-31T02:02:02.859Z,99.99
2018-03-31T02:03:02.862Z,99.99
2018-03-31T02:04:02.805Z,99.99
2018-03-31T02:05:02.801Z,99.99
2018-03-31T02:06:02.756Z,99.99
2018-03-31T02:07:02.721Z,99.99
2018-03-31T02:08:02.682Z,99.99
2018-03-31T02:09:02.716Z,99.99
2018-03-31T02:10:02.640Z,99.99
2018-03-31T02:11:02.623Z,99.99
2018-03-31T02:12:02.629Z,99.99
2018-03-31T02:13:02.561Z,99.99
2018-03-31T02:14:02.537Z,99.99
2018-03-31T02:15:02.543Z,99.99
2018-03-31T02:16:02.481Z,99.99
2018-03-31T02:17:02.454Z,99.99
2018-03-31T02:18:02.457Z,99.99
2018-03-31T02:19:02.399Z,99.99
2018-03-31T02:20:02.374Z,99.99
2018-03-31T02:21:02.380Z,99.99
2018-03-31T02:22:02.317Z,99.99
2018-03-31T02:23:02.274Z,99.99
2018-03-31T02:24:02.295Z,99.99
2018-03-31T02:25:02.238Z,99.99
2018-03-31T02:26:02.236Z,99.99
2018-03-31T02:27:02.185Z,99.99
2018-03-31T02:28:02.154Z,99.99
2018-03-31T02:29:02.126Z,99.99
2018-03-31T02:30:02.132Z,99.99
2018-03-31T02:31:02.075Z,99.99
2018-03-31T02:32:02.043Z,99.99
2018-03-31T02:33:02.023Z,99.99
2018-03-31T02:34:01.989Z,99.99
2018-03-31T02:35:01.971Z,99.99
2018-03-31T02:36:01.977Z,99.99
2018-03-31T02:37:01.913Z,99.99
2018-03-31T02:38:01.864Z,99.99
2018-03-31T02:39:01.882Z,99.99
2018-03-31T02:40:01.819Z,99.99
2018-03-31T02:41:01.802Z,99.99
2018-03-31T02:42:01.768Z,99.99
2018-03-31T02:43:01.741Z,99.99
2018-03-31T02:44:01.720Z,99.99
2018-03-31T02:45:01.712Z,99.99
2018-03-31T02:46:01.656Z,99.99
2018-03-31T02:47:01.644Z,99.99
2018-03-31T02:48:01.605Z,99.99
2018-03-31T02:49:01.577Z,99.99
2018-03-31T02:50:01.558Z,99.99
2018-03-31T02:51:01.526Z,99.99
2018-03-31T02:52:01.494Z,99.99
2018-03-31T02:53:01.483Z,99.99
2018-03-31T02:54:01.447Z,99.99
2018-03-31T02:55:01.407Z,99.99
2018-03-31T02:56:01.409Z,99.99
2018-03-31T02:57:01.363Z,99.99
2018-03-31T02:58:01.327Z,99.99
2018-03-31T02:59:01.296Z,99.99
2018-03-31T03:00:01.281Z,99.99
2018-03-31T03:01:01.243Z,99.99
2018-03-31T03:02:01.252Z,99.99
2018-03-31T03:03:01.199Z,99.99
2018-03-31T03:04:01.173Z,99.99
2018-03-31T03:05:01.179Z,99.99
2018-03-31T03:06:01.118Z,99.99
2018-03-31T03:07:01.085Z,99.99
2018-03-31T03:08:01.091Z,99.99
2018-03-31T03:09:01.040Z,99.99
2018-03-31T03:10:01.009Z,99.99
2018-03-31T03:11:01.012Z,99.99
2018-03-31T03:12:00.981Z,99.99
2018-03-31T03:13:00.924Z,99.99
2018-03-31T03:14:00.927Z,99.99
2018-03-31T03:15:00.915Z,99.99
2018-03-31T03:16:00.841Z,99.99
2018-03-31T03:17:00.846Z,99.99
2018-03-31T03:18:00.793Z,99.99
2018-03-31T03:19:00.763Z,99.99
2018-03-31T03:20:00.761Z,99.99
2018-03-31T03:21:00.712Z,99.99
2018-03-31T03:22:00.714Z,99.99
2018-03-31T03:23:00.682Z,99.99
2018-03-31T03:24:00.630Z,99.99
2018-03-31T03:25:00.605Z,99.99
2018-03-31T03:26:00.600Z,99.99
2018-03-31T03:27:00.607Z,99.99
2018-03-31T03:28:00.552Z,99.99
2018-03-31T03:29:00.523Z,99.99
2018-03-31T03:30:00.494Z,99.99
2018-03-31T03:31:00.509Z,99.99
2018-03-31T03:32:00.440Z,99.99
2018-03-31T03:33:00.414Z,99.99
2018-03-31T03:34:00.385Z,99.99
2018-03-31T03:35:00.355Z,99.99
2018-03-31T03:36:00.323Z,99.99
2018-03-31T03:37:00.306Z,99.99
2018-03-31T03:38:00.277Z,99.99
2018-03-31T03:39:00.218Z,99.99
2018-03-31T03:40:00.249Z,99.99
2018-03-31T03:41:00.187Z,99.99
2018-03-31T03:42:00.138Z,99.99
2018-03-31T03:43:00.168Z,99.99
2018-03-31T03:44:00.108Z,99.99
2018-03-31T03:45:00.084Z,99.99
2018-03-31T03:46:00.089Z,99.99
2018-03-31T03:47:00.026Z,99.99
2018-03-31T03:48:00.012Z,99.99
2018-03-31T03:48:59.998Z,99.99
2018-03-31T03:49:59.942Z,99.99
2018-03-31T03:50:59.903Z,99.99
2018-03-31T03:51:59.873Z,99.99
2018-03-31T03:52:59.851Z,99.99
2018-03-31T03:53:59.821Z,99.99
2018-03-31T03:54:59.787Z,99.99
2018-03-31T03:55:59.760Z,99.99
2018-03-31T03:56:59.735Z,99.99
2018-03-31T03:57:59.709Z,99.99
2018-03-31T03:58:59.688Z,99.99
2018-03-31T03:59:59.656Z,99.99
2018-03-31T04:00:59.633Z,99.99
2018-03-31T04:01:59.608Z,99.99
2018-03-31T04:02:59.571Z,99.99
2018-03-31T04:03:59.552Z,99.99
2018-03-31T04:04:59.520Z,99.99
2018-03-31T04:05:59.497Z,99.99
2018-03-31T04:06:59.494Z,99.99
2018-03-31T04:07:59.444Z,99.99
2018-03-31T04:08:59.409Z,99.99
2018-03-31T04:09:59.398Z,99.99
2018-03-31T04:10:59.368Z,99.99
2018-03-31T04:11:59.337Z,99.99
2018-03-31T04:12:59.309Z,99.99
2018-03-31T04:13:59.283Z,99.99
2018-03-31T04:14:59.249Z,99.99
2018-03-31T04:15:59.273Z,99.99
2018-03-31T04:16:59.210Z,99.99
2018-03-31T04:17:59.218Z,99.99
2018-03-31T04:18:59.168Z,99.99
2018-03-31T04:19:59.131Z,99.99
2018-03-31T04:20:59.112Z,99.99
2018-03-31T04:21:59.098Z,99.99
2018-03-31T04:22:59.047Z,99.99
2018-03-31T04:23:59.092Z,99.99
2018-03-31T04:24:59.000Z,99.99
2018-03-31T04:25:58.965Z,99.99
2018-03-31T04:26:58.971Z,99.99
2018-03-31T04:27:58.947Z,99.99
2018-03-31T04:28:58.884Z,99.99
2018-03-31T04:29:58.861Z,99.99
2018-03-31T04:30:58.852Z,99.99
2018-03-31T04:31:58.807Z,99.99
2018-03-31T04:32:58.777Z,99.99
2018-03-31T04:33:58.756Z,99.99
2018-03-31T04:34:58.717Z,99.99
2018-03-31T04:35:58.696Z,99.99
2018-03-31T04:36:58.691Z,99.99
2018-03-31T04:37:58.638Z,99.99
2018-03-31T04:38:58.620Z,99.99
2018-03-31T04:39:58.618Z,99.99
2018-03-31T04:40:58.555Z,99.99
2018-03-31T04:41:58.536Z,99.99
2018-03-31T04:42:58.529Z,99.99
2018-03-31T04:43:58.467Z,99.99
2018-03-31T04:44:58.477Z,99.99
2018-03-31T04:45:58.447Z,99.99
2018-03-31T04:46:58.391Z,99.99
2018-03-31T04:47:58.366Z,99.99
2018-03-31T04:48:58.342Z,99.99
2018-03-31T04:49:58.312Z,99.99
2018-03-31T04:50:58.268Z,99.99
2018-03-31T04:51:58.272Z,99.99
2018-03-31T04:52:58.237Z,99.99
2018-03-31T04:53:58.202Z,99.99
2018-03-31T04:54:58.188Z,99.99
2018-03-31T04:55:58.153Z,99.99
2018-03-31T04:56:58.107Z,99.99
2018-03-31T04:57:58.081Z,99.99
2018-03-31T04:58:58.059Z,99.99
2018-03-31T04:59:58.039Z,99.99
2018-03-31T05:00:58.043Z,99.99
2018-03-31T05:01:57.981Z,99.99
2018-03-31T05:02:57.961Z,99.99
2018-03-31T05:03:57.962Z,99.99
2018-03-31T05:04:57.893Z,99.99
2018-03-31T05:05:57.854Z,99.99
2018-03-31T05:06:57.878Z,99.99
2018-03-31T05:07:57.816Z,99.99
2018-03-31T05:08:57.800Z,99.99
2018-03-31T05:09:57.820Z,99.99
2018-03-31T05:10:57.735Z,99.99
2018-03-31T05:11:57.742Z,99.99
2018-03-31T05:12:57.713Z,99.99
2018-03-31T05:13:57.640Z,99.99
2018-03-31T05:14:57.715Z,99.99
2018-03-31T05:15:57.624Z,99.99
2018-03-31T05:16:57.591Z,99.99
2018-03-31T05:17:57.554Z,99.99
2018-03-31T05:18:57.555Z,99.99
2018-03-31T05:19:57.547Z,99.99
2018-03-31T05:20:57.463Z,99.99
2018-03-31T05:21:57.506Z,99.99
2018-03-31T05:22:57.405Z,99.99
2018-03-31T05:23:57.378Z,99.99
2018-03-31T05:24:57.361Z,99.99
2018-03-31T05:25:57.324Z,99.99
2018-03-31T05:26:57.282Z,99.99
2018-03-31T05:27:57.304Z,99.99
2018-03-31T05:28:57.251Z,99.99
2018-03-31T05:29:57.205Z,99.99
2018-03-31T05:30:57.194Z,99.99
2018-03-31T05:31:57.162Z,99.99
2018-03-31T05:32:57.112Z,99.99
2018-03-31T05:33:57.106Z,99.99
2018-03-31T05:34:57.078Z,99.99
2018-03-31T05:35:57.026Z,99.99
2018-03-31T05:36:57.043Z,99.99
2018-03-31T05:37:56.996Z,99.99
2018-03-31T05:38:56.947Z,99.99
2018-03-31T05:39:56.974Z,99.99
2018-03-31T05:40:56.915Z,99.99
2018-03-31T05:41:56.867Z,99.99
2018-03-31T05:42:56.891Z,99.99
2018-03-31T05:43:56.836Z,99.99
2018-03-31T05:44:56.805Z,99.99
2018-03-31T05:45:56.826Z,99.99
2018-03-31T05:46:56.755Z,99.99
2018-03-31T05:47:56.724Z,99.99
2018-03-31T05:48:56.734Z,99.99
2018-03-31T05:49:56.669Z,99.99
2018-03-31T05:50:56.645Z,99.99
2018-03-31T05:51:56.620Z,99.99
2018-03-31T05:52:56.589Z,99.99
2018-03-31T05:53:56.535Z,99.99
2018-03-31T05:54:56.509Z,99.99
2018-03-31T05:55:56.507Z,99.99
2018-03-31T05:56:56.490Z,99.99
2018-03-31T05:57:56.425Z,99.99
2018-03-31T05:58:56.425Z,99.99
2018-03-31T05:59:56.418Z,99.99
2018-03-31T06:00:56.339Z,99.99
2018-03-31T06:01:56.349Z,99.99
2018-03-31T06:02:56.286Z,99.99
2018-03-31T06:03:56.255Z,99.99
2018-03-31T06:04:56.260Z,99.99
2018-03-31T06:05:56.205Z,99.99
2018-03-31T06:06:56.177Z,99.99
2018-03-31T06:07:56.161Z,99.99
2018-03-31T06:08:56.121Z,99.99
2018-03-31T06:09:56.090Z,99.99
2018-03-31T06:10:56.069Z,99.99
2018-03-31T06:11:56.040Z,99.99
2018-03-31T06:12:56.019Z,99.99
2018-03-31T06:13:56.015Z,99.99
2018-03-31T06:14:55.988Z,99.99
2018-03-31T06:15:55.935Z,99.99
2018-03-31T06:16:55.931Z,99.99
2018-03-31T06:17:55.878Z,99.99
2018-03-31T06:18:55.848Z,99.99
2018-03-31T06:19:55.820Z,99.99
2018-03-31T06:20:55.798Z,99.99
2018-03-31T06:21:55.766Z,99.99
2018-03-31T06:22:55.770Z,99.99
2018-03-31T06:23:55.737Z,99.99
2018-03-31T06:24:55.685Z,99.99
2018-03-31T06:25:55.689Z,99.99
2018-03-31T06:26:55.630Z,99.99
2018-03-31T06:27:55.604Z,99.99
2018-03-31T06:28:55.609Z,99.99
2018-03-31T06:29:55.545Z,99.99
2018-03-31T06:30:55.521Z,99.99
2018-03-31T06:31:55.525Z,99.99
2018-03-31T06:32:55.491Z,99.99
2018-03-31T06:33:55.435Z,99.99
2018-03-31T06:34:55.444Z,99.99
2018-03-31T06:35:55.425Z,99.99
2018-03-31T06:36:55.357Z,99.99
2018-03-31T06:37:55.361Z,99.99
2018-03-31T06:38:55.329Z,99.99
2018-03-31T06:39:55.289Z,99.99
2018-03-31T06:40:55.283Z,99.99
2018-03-31T06:41:55.219Z,99.99
2018-03-31T06:42:55.188Z,99.99
2018-03-31T06:43:55.256Z,99.99
2018-03-31T06:44:55.170Z,99.99
2018-03-31T06:45:55.108Z,99.99
2018-03-31T06:46:55.090Z,99.99
2018-03-31T06:47:55.062Z,99.99
2018-03-31T06:48:55.038Z,99.99
2018-03-31T06:49:55.035Z,99.99
2018-03-31T06:50:54.974Z,99.99
2018-03-31T06:51:54.956Z,99.99
2018-03-31T06:52:54.955Z,99.99
2018-03-31T06:53:54.897Z,99.99
2018-03-31T06:54:54.874Z,99.99
2018-03-31T06:55:54.846Z,99.99
2018-03-31T06:56:54.806Z,99.99
2018-03-31T06:57:54.792Z,99.99
2018-03-31T06:58:54.761Z,99.99
2018-03-31T06:59:54.728Z,99.99
2018-03-31T07:00:54.710Z,99.99
2018-03-31T07:01:54.679Z,99.99
2018-03-31T07:02:54.647Z,99.99
2018-03-31T07:03:54.632Z,99.99
2018-03-31T07:04:54.594Z,99.99
2018-03-31T07:05:54.565Z,99.99
2018-03-31T07:06:54.541Z,99.99
2018-03-31T07:07:54.515Z,99.99
2018-03-31T07:08:54.485Z,99.99
2018-03-31T07:09:54.461Z,99.99
2018-03-31T07:10:54.433Z,99.99
2018-03-31T07:11:54.403Z,99.99
2018-03-31T07:12:54.382Z,99.99
2018-03-31T07:13:54.352Z,99.99
2018-03-31T07:14:54.330Z,99.99
2018-03-31T07:15:54.302Z,99.99
2018-03-31T07:16:54.277Z,99.99
2018-03-31T07:17:54.249Z,99.99
2018-03-31T07:18:54.210Z,99.99
2018-03-31T07:19:54.187Z,99.99
2018-03-31T07:20:54.167Z,99.99
2018-03-31T07:21:54.137Z,99.99
2018-03-31T07:22:54.111Z,99.99
2018-03-31T07:23:54.087Z,99.99
2018-03-31T07:24:54.052Z,99.99
2018-03-31T07:25:54.027Z,99.99
2018-03-31T07:26:54.020Z,99.99
2018-03-31T07:27:53.983Z,99.99
2018-03-31T07:28:53.953Z,99.99
2018-03-31T07:29:53.927Z,99.99
2018-03-31T07:30:53.893Z,99.99
2018-03-31T07:31:53.906Z,99.99
2018-03-31T07:32:53.975Z,99.99
2018-03-31T07:33:53.810Z,99.99
2018-03-31T07:34:53.799Z,99.99
2018-03-31T07:35:53.760Z,99.99
2018-03-31T07:36:53.820Z,99.99
2018-03-31T07:37:53.710Z,99.99
2018-03-31T07:38:53.682Z,99.99
2018-03-31T07:39:53.658Z,99.99
2018-03-31T07:40:53.625Z,99.64
2018-03-31T07:41:53.596Z,98.88
2018-03-31T07:42:53.577Z,99.07
2018-03-31T07:43:53.541Z,99.26
2018-03-31T07:44:53.522Z,99.74
2018-03-31T07:45:53.497Z,99.16
2018-03-31T07:46:53.471Z,98.50
2018-03-31T07:47:53.442Z,98.60
2018-03-31T07:48:53.410Z,98.55
2018-03-31T07:49:53.382Z,98.46
2018-03-31T07:50:53.361Z,98.79
2018-03-31T07:51:53.330Z,98.88
2018-03-31T07:52:53.317Z,99.31
2018-03-31T07:53:53.294Z,98.83
2018-03-31T07:54:53.251Z,98.12
2018-03-31T07:55:53.228Z,99.55
2018-03-31T07:56:53.208Z,98.46
2018-03-31T07:57:53.177Z,97.79
2018-03-31T07:58:53.143Z,97.79
2018-03-31T07:59:53.156Z,97.79
2018-03-31T08:00:53.113Z,97.69
2018-03-31T08:01:53.070Z,97.13
2018-03-31T08:02:53.043Z,96.36
2018-03-31T08:03:53.019Z,95.79
2018-03-31T08:04:52.990Z,95.12
2018-03-31T08:05:52.966Z,94.18
2018-03-31T08:06:52.952Z,92.46
2018-03-31T08:07:52.910Z,92.08
2018-03-31T08:08:52.883Z,92.65
2018-03-31T08:09:52.870Z,93.04
2018-03-31T08:10:52.835Z,92.94
2018-03-31T08:11:52.806Z,93.32
2018-03-31T08:12:52.791Z,93.08
2018-03-31T08:13:52.750Z,92.60
2018-03-31T08:14:52.734Z,91.70
2018-03-31T08:15:52.698Z,91.03
2018-03-31T08:16:53.848Z,91.42
2018-03-31T08:17:52.651Z,91.13
2018-03-31T08:18:52.627Z,91.99
2018-03-31T08:19:52.607Z,91.13
2018-03-31T08:20:54.560Z,90.47
2018-03-31T08:21:52.550Z,89.70
2018-03-31T08:22:52.517Z,90.08
2018-03-31T08:23:52.488Z,90.94
2018-03-31T08:24:52.471Z,90.28
2018-03-31T08:25:52.439Z,90.75
2018-03-31T08:26:52.417Z,91.51
2018-03-31T08:27:52.396Z,92.08
2018-03-31T08:28:52.369Z,92.27
2018-03-31T08:29:52.345Z,91.61
2018-03-31T08:30:52.317Z,92.27
2018-03-31T08:31:52.288Z,90.66
2018-03-31T08:32:52.262Z,90.08
2018-03-31T08:33:52.237Z,90.18
2018-03-31T08:34:52.206Z,89.27
2018-03-31T08:35:52.183Z,88.28
2018-03-31T08:36:52.335Z,86.38
2018-03-31T08:37:52.132Z,85.52
2018-03-31T08:38:52.112Z,85.80
2018-03-31T08:39:52.081Z,86.04
2018-03-31T08:40:52.062Z,86.90
2018-03-31T08:41:52.028Z,86.61
2018-03-31T08:42:52.007Z,87.46
2018-03-31T08:43:51.986Z,86.42
2018-03-31T08:44:51.952Z,85.66
2018-03-31T08:45:51.928Z,85.94
2018-03-31T08:46:51.895Z,87.37
2018-03-31T08:47:51.868Z,88.04
2018-03-31T08:48:51.850Z,87.75
2018-03-31T08:49:51.828Z,88.51
2018-03-31T08:50:51.796Z,88.99
2018-03-31T08:51:51.774Z,88.42
2018-03-31T08:52:51.740Z,88.13
2018-03-31T08:53:51.747Z,87.56
2018-03-31T08:54:52.040Z,85.75
2018-03-31T08:55:51.671Z,85.66
2018-03-31T08:56:51.637Z,84.52
2018-03-31T08:57:51.619Z,84.70
2018-03-31T08:58:51.584Z,83.18
2018-03-31T08:59:51.557Z,83.09
2018-03-31T09:00:51.540Z,82.61
2018-03-31T09:01:52.960Z,82.23
2018-03-31T09:02:51.490Z,82.23
2018-03-31T09:03:51.504Z,84.13
2018-03-31T09:04:51.437Z,84.61
2018-03-31T09:05:51.407Z,85.08
2018-03-31T09:06:51.384Z,83.75
2018-03-31T09:07:51.352Z,84.04
2018-03-31T09:08:51.329Z,80.71
2018-03-31T09:09:51.307Z,80.99
2018-03-31T09:10:51.277Z,81.95
2018-03-31T09:11:51.268Z,82.42
2018-03-31T09:12:51.225Z,83.18
2018-03-31T09:13:51.198Z,82.42
2018-03-31T09:14:51.178Z,81.03
2018-03-31T09:15:51.155Z,81.89
2018-03-31T09:16:51.123Z,81.23
2018-03-31T09:17:51.102Z,81.41
2018-03-31T09:18:51.370Z,81.70
2018-03-31T09:19:51.050Z,81.13
2018-03-31T09:20:51.022Z,81.13
2018-03-31T09:21:50.994Z,78.94
2018-03-31T09:22:50.968Z,78.65
2018-03-31T09:23:50.940Z,78.85
2018-03-31T09:24:50.937Z,79.89
2018-03-31T09:25:50.903Z,79.89
2018-03-31T09:26:50.923Z,78.94
2018-03-31T09:27:51.025Z,78.46
2018-03-31T09:28:51.795Z,78.08
2018-03-31T09:29:50.788Z,77.42
2018-03-31T09:30:50.767Z,77.95
2018-03-31T09:31:53.829Z,77.85
2018-03-31T09:32:50.720Z,78.37
2018-03-31T09:33:50.733Z,77.61
2018-03-31T09:34:50.744Z,78.37
2018-03-31T09:35:50.640Z,77.98
2018-03-31T09:36:50.614Z,76.94
2018-03-31T09:37:50.584Z,77.03
2018-03-31T09:38:50.558Z,77.42
2018-03-31T09:39:50.540Z,77.51
2018-03-31T09:40:50.510Z,77.22
2018-03-31T09:41:51.365Z,76.18
2018-03-31T09:42:50.458Z,75.32
2018-03-31T09:43:50.433Z,74.94
2018-03-31T09:44:50.407Z,75.13
2018-03-31T09:45:50.381Z,75.51
2018-03-31T09:46:50.402Z,76.18
2018-03-31T09:47:50.330Z,76.46
2018-03-31T09:48:50.307Z,76.27
2018-03-31T09:49:50.288Z,76.46
2018-03-31T09:50:50.250Z,76.75
2018-03-31T09:51:50.227Z,75.32
2018-03-31T09:52:50.206Z,73.13
2018-03-31T09:53:50.180Z,69.70
2018-03-31T09:54:50.163Z,68.37
2018-03-31T09:55:50.123Z,68.08
2018-03-31T09:56:50.117Z,68.56
2018-03-31T09:57:50.086Z,70.78
2018-03-31T09:58:50.056Z,71.22
2018-03-31T09:59:50.026Z,70.31
2018-03-31T10:00:50.005Z,70.69
2018-03-31T10:01:49.983Z,70.40
2018-03-31T10:02:49.952Z,69.45
2018-03-31T10:03:49.931Z,69.74
2018-03-31T10:04:49.951Z,70.78
2018-03-31T10:05:49.873Z,71.64
2018-03-31T10:06:49.856Z,71.45
2018-03-31T10:07:49.841Z,71.64
2018-03-31T10:08:49.805Z,71.98
2018-03-31T10:09:49.772Z,72.41
2018-03-31T10:10:49.749Z,72.78
2018-03-31T10:11:49.730Z,71.64
2018-03-31T10:12:49.707Z,72.46
2018-03-31T10:13:49.682Z,72.50
2018-03-31T10:14:49.649Z,71.93
2018-03-31T10:15:49.624Z,73.17
2018-03-31T10:16:49.603Z,71.55
2018-03-31T10:17:49.580Z,71.73
2018-03-31T10:18:49.546Z,71.36
2018-03-31T10:19:49.537Z,70.97
2018-03-31T10:20:49.495Z,70.88
2018-03-31T10:21:49.473Z,70.69
2018-03-31T10:22:49.505Z,70.69
2018-03-31T10:23:49.427Z,70.21
2018-03-31T10:24:49.410Z,70.59
2018-03-31T10:25:49.372Z,71.83
2018-03-31T10:26:49.364Z,71.55
2018-03-31T10:27:49.319Z,71.45
2018-03-31T10:28:49.303Z,71.36
2018-03-31T10:29:49.268Z,71.17
2018-03-31T10:30:49.250Z,70.50
2018-03-31T10:31:49.293Z,70.12
2018-03-31T10:32:49.194Z,70.40
2018-03-31T10:33:49.177Z,70.59
2018-03-31T10:34:49.153Z,71.30
2018-03-31T10:35:49.126Z,70.92
2018-03-31T10:36:49.100Z,69.77
2018-03-31T10:37:49.117Z,69.01
2018-03-31T10:38:49.070Z,68.91
2018-03-31T10:39:49.022Z,67.86
2018-03-31T10:40:49.022Z,67.86
2018-03-31T10:41:48.982Z,67.96
2018-03-31T10:42:48.941Z,66.63
2018-03-31T10:43:48.961Z,66.91
2018-03-31T10:44:48.893Z,67.86
2018-03-31T10:45:48.866Z,68.24
2018-03-31T10:46:48.845Z,67.77
2018-03-31T10:47:48.814Z,68.72
2018-03-31T10:48:48.800Z,65.00
2018-03-31T10:49:48.770Z,64.24
2018-03-31T10:50:48.750Z,65.77
2018-03-31T10:51:48.724Z,66.63
2018-03-31T10:52:48.717Z,65.77
2018-03-31T10:53:48.803Z,66.15
2018-03-31T10:54:48.647Z,66.34
2018-03-31T10:55:48.617Z,67.00
2018-03-31T10:56:48.594Z,66.44
2018-03-31T10:57:48.567Z,66.05
2018-03-31T10:58:48.538Z,65.67
2018-03-31T10:59:48.522Z,65.58
2018-03-31T11:00:48.493Z,65.77
2018-03-31T11:01:48.508Z,66.24
2018-03-31T11:02:48.445Z,66.44
2018-03-31T11:03:48.414Z,67.29
2018-03-31T11:04:48.399Z,68.34
2018-03-31T11:05:48.365Z,68.91
2018-03-31T11:06:48.343Z,68.44
2018-03-31T11:07:48.318Z,68.53
2018-03-31T11:08:48.297Z,68.91
2018-03-31T11:09:48.272Z,68.72
2018-03-31T11:10:49.140Z,68.82
2018-03-31T11:11:48.221Z,67.86
2018-03-31T11:12:48.210Z,66.91
2018-03-31T11:13:48.173Z,66.53
2018-03-31T11:14:48.147Z,66.82
2018-03-31T11:15:48.135Z,66.56
2018-03-31T11:16:48.095Z,66.56
2018-03-31T11:17:48.067Z,65.70
2018-03-31T11:18:48.063Z,66.28
2018-03-31T11:19:48.037Z,66.47
2018-03-31T11:20:47.998Z,66.44
2018-03-31T11:21:47.971Z,66.75
2018-03-31T11:22:47.958Z,66.47
2018-03-31T11:23:47.917Z,66.85
2018-03-31T11:24:47.895Z,66.94
2018-03-31T11:25:47.876Z,66.28
2018-03-31T11:26:47.843Z,65.42
2018-03-31T11:27:47.821Z,65.04
2018-03-31T11:28:47.816Z,65.61
2018-03-31T11:29:47.777Z,65.36
2018-03-31T11:30:47.742Z,65.07
2018-03-31T11:31:47.729Z,65.36
2018-03-31T11:32:47.696Z,64.65
2018-03-31T11:33:47.684Z,65.42
2018-03-31T11:34:47.653Z,66.18
2018-03-31T11:35:47.624Z,66.18
2018-03-31T11:36:47.600Z,65.33
2018-03-31T11:37:47.582Z,65.42
2018-03-31T11:38:47.550Z,66.38
2018-03-31T11:39:47.525Z,67.14
2018-03-31T11:40:47.513Z,66.28
2018-03-31T11:41:47.481Z,66.09
2018-03-31T11:42:47.452Z,65.52
2018-03-31T11:43:47.437Z,65.70
2018-03-31T11:44:47.404Z,64.75
2018-03-31T11:45:47.439Z,64.28
2018-03-31T11:46:47.358Z,63.70
2018-03-31T11:47:47.331Z,63.80
2018-03-31T11:48:47.305Z,64.28
2018-03-31T11:49:47.283Z,65.23
2018-03-31T11:50:47.257Z,64.85
2018-03-31T11:51:47.230Z,64.94
2018-03-31T11:52:47.209Z,64.94
2018-03-31T11:53:47.190Z,64.85
2018-03-31T11:54:47.172Z,65.23
2018-03-31T11:55:47.136Z,64.37
2018-03-31T11:56:47.115Z,63.89
2018-03-31T11:57:47.090Z,64.65
2018-03-31T11:58:47.064Z,65.23
2018-03-31T11:59:47.042Z,64.94
2018-03-31T12:00:47.013Z,65.23
2018-03-31T12:01:46.994Z,65.13
2018-03-31T12:02:46.971Z,65.33
2018-03-31T12:03:46.952Z,64.47
2018-03-31T12:04:46.921Z,64.28
2018-03-31T12:05:46.910Z,64.37
2018-03-31T12:06:46.909Z,64.18
2018-03-31T12:07:46.842Z,64.56
2018-03-31T12:08:46.828Z,64.28
2018-03-31T12:09:46.872Z,62.37
2018-03-31T12:10:46.773Z,63.13
2018-03-31T12:11:46.757Z,62.56
2018-03-31T12:12:46.726Z,62.94
2018-03-31T12:13:46.702Z,62.94
2018-03-31T12:14:46.674Z,61.32
2018-03-31T12:15:46.654Z,60.94
2018-03-31T12:16:46.634Z,61.32
2018-03-31T12:17:46.616Z,60.75
2018-03-31T12:18:46.572Z,61.13
2018-03-31T12:19:46.565Z,60.94
2018-03-31T12:20:46.533Z,60.27
2018-03-31T12:21:46.498Z,60.55
2018-03-31T12:22:46.479Z,60.17
2018-03-31T12:23:46.450Z,61.04
2018-03-31T12:24:46.432Z,61.07
2018-03-31T12:25:46.414Z,61.44
2018-03-31T12:26:46.384Z,61.73
2018-03-31T12:27:46.366Z,61.44
2018-03-31T12:28:46.393Z,61.54
2018-03-31T12:29:46.345Z,61.63
2018-03-31T12:30:46.301Z,60.78
2018-03-31T12:31:46.253Z,60.97
2018-03-31T12:32:46.236Z,61.16
2018-03-31T12:33:46.210Z,62.49
2018-03-31T12:34:46.199Z,61.35
2018-03-31T12:35:46.179Z,60.97
2018-03-31T12:36:46.137Z,61.25
2018-03-31T12:37:46.111Z,61.44
2018-03-31T12:38:46.092Z,60.39
2018-03-31T12:39:46.068Z,60.58
2018-03-31T12:40:46.035Z,61.07
2018-03-31T12:41:46.016Z,61.35
2018-03-31T12:42:45.981Z,61.07
2018-03-31T12:43:45.964Z,61.16
2018-03-31T12:44:45.940Z,61.19
2018-03-31T12:45:45.917Z,60.24
2018-03-31T12:46:45.895Z,59.82
2018-03-31T12:47:45.891Z,60.58
2018-03-31T12:48:45.842Z,60.97
2018-03-31T12:49:45.848Z,60.68
2018-03-31T12:50:45.794Z,61.07
2018-03-31T12:51:45.820Z,61.07
2018-03-31T12:52:45.741Z,61.25